sensor_id;sensor_type;location;lat;lon;timestamp;temperature;humidity
23259;DHT22;11798;51.528;7.240;2022-11-20T00:01:45;-0.90;99.90
23259;DHT22;11798;51.528;7.240;2022-11-20T00:04:10;-0.90;99.90
23259;DHT22;11798;51.528;7.240;2022-11-20T00:06:37;-0.90;99.90
23259;DHT22;11798;51.528;7.240;2022-11-20T00:09:03;-0.90;99.90
23259;DHT22;11798;51.528;7.240;2022-11-20T00:11:31;-0.80;99.90
23259;DHT22;11798;51.528;7.240;2022-11-20T00:13:59;-0.80;99.90
23259;DHT22;11798;51.528;7.240;2022-11-20T00:16:26;-0.80;99.90
23259;DHT22;11798;51.528;7.240;2022-11-20T00:18:52;-0.70;99.90
23259;DHT22;11798;51.528;7.240;2022-11-20T00:21:26;-0.70;99.90
23259;DHT22;11798;51.528;7.240;2022-11-20T00:23:54;-0.70;99.90
23259;DHT22;11798;51.528;7.240;2022-11-20T00:26:21;-0.60;99.90
23259;DHT22;11798;51.528;7.240;2022-11-20T00:28:57;-0.60;99.90
23259;DHT22;11798;51.528;7.240;2022-11-20T00:31:24;-0.80;99.90
23259;DHT22;11798;51.528;7.240;2022-11-20T00:33:50;-0.70;99.90
23259;DHT22;11798;51.528;7.240;2022-11-20T00:36:21;-0.70;99.90
23259;DHT22;11798;51.528;7.240;2022-11-20T00:38:47;-0.60;99.90
23259;DHT22;11798;51.528;7.240;2022-11-20T00:41:16;-0.50;99.90
23259;DHT22;11798;51.528;7.240;2022-11-20T00:43:42;-0.40;99.90
23259;DHT22;11798;51.528;7.240;2022-11-20T00:46:20;-0.50;99.90
23259;DHT22;11798;51.528;7.240;2022-11-20T00:48:46;-0.50;99.90
23259;DHT22;11798;51.528;7.240;2022-11-20T00:51:21;-0.50;99.90
23259;DHT22;11798;51.528;7.240;2022-11-20T00:53:47;-0.50;99.90
23259;DHT22;11798;51.528;7.240;2022-11-20T00:56:14;-0.60;99.90
23259;DHT22;11798;51.528;7.240;2022-11-20T00:58:42;-0.80;99.90
23259;DHT22;11798;51.528;7.240;2022-11-20T01:03:40;-0.60;99.90
23259;DHT22;11798;51.528;7.240;2022-11-20T01:06:12;-0.60;99.90
23259;DHT22;11798;51.528;7.240;2022-11-20T01:08:38;-0.60;99.90
23259;DHT22;11798;51.528;7.240;2022-11-20T01:11:07;-0.50;99.90
23259;DHT22;11798;51.528;7.240;2022-11-20T01:13:33;-0.60;99.90
23259;DHT22;11798;51.528;7.240;2022-11-20T01:18:43;-0.60;99.90
23259;DHT22;11798;51.528;7.240;2022-11-20T01:21:11;-0.60;99.90
23259;DHT22;11798;51.528;7.240;2022-11-20T01:23:40;-0.60;99.90
23259;DHT22;11798;51.528;7.240;2022-11-20T01:26:09;-0.70;99.90
23259;DHT22;11798;51.528;7.240;2022-11-20T01:28:35;-0.70;99.90
23259;DHT22;11798;51.528;7.240;2022-11-20T01:31:09;-0.70;99.90
23259;DHT22;11798;51.528;7.240;2022-11-20T01:33:36;-0.80;99.90
23259;DHT22;11798;51.528;7.240;2022-11-20T01:36:06;-0.70;99.90
23259;DHT22;11798;51.528;7.240;2022-11-20T01:38:31;-0.70;99.90
23259;DHT22;11798;51.528;7.240;2022-11-20T01:40:57;-0.70;99.90
23259;DHT22;11798;51.528;7.240;2022-11-20T01:43:23;-0.60;99.90
23259;DHT22;11798;51.528;7.240;2022-11-20T01:45:58;-0.60;99.90
23259;DHT22;11798;51.528;7.240;2022-11-20T01:48:28;-0.60;99.90
23259;DHT22;11798;51.528;7.240;2022-11-20T01:50:56;-0.60;99.90
23259;DHT22;11798;51.528;7.240;2022-11-20T01:53:27;-0.70;99.90
23259;DHT22;11798;51.528;7.240;2022-11-20T01:55:55;-0.90;99.90
23259;DHT22;11798;51.528;7.240;2022-11-20T01:58:25;-0.90;99.90
23259;DHT22;11798;51.528;7.240;2022-11-20T02:00:52;-0.90;99.90
23259;DHT22;11798;51.528;7.240;2022-11-20T02:03:19;-0.90;99.90
23259;DHT22;11798;51.528;7.240;2022-11-20T02:08:48;-0.90;99.90
23259;DHT22;11798;51.528;7.240;2022-11-20T02:11:13;-0.80;99.90
23259;DHT22;11798;51.528;7.240;2022-11-20T02:13:39;-0.80;99.90
23259;DHT22;11798;51.528;7.240;2022-11-20T02:16:30;-0.80;99.90
23259;DHT22;11798;51.528;7.240;2022-11-20T02:18:59;-0.80;99.90
23259;DHT22;11798;51.528;7.240;2022-11-20T02:24:11;-0.80;99.90
23259;DHT22;11798;51.528;7.240;2022-11-20T02:27:06;-0.80;99.90
23259;DHT22;11798;51.528;7.240;2022-11-20T02:29:58;-0.80;99.90
23259;DHT22;11798;51.528;7.240;2022-11-20T02:32:35;-0.90;99.90
23259;DHT22;11798;51.528;7.240;2022-11-20T02:35:08;-0.90;99.90
23259;DHT22;11798;51.528;7.240;2022-11-20T02:37:37;-0.90;99.90
23259;DHT22;11798;51.528;7.240;2022-11-20T02:40:04;-0.90;99.90
23259;DHT22;11798;51.528;7.240;2022-11-20T02:42:30;-0.90;99.90
23259;DHT22;11798;51.528;7.240;2022-11-20T02:44:55;-0.90;99.90
23259;DHT22;11798;51.528;7.240;2022-11-20T02:47:21;-1.00;99.90
23259;DHT22;11798;51.528;7.240;2022-11-20T02:49:46;-1.10;99.90
23259;DHT22;11798;51.528;7.240;2022-11-20T02:52:12;-1.10;99.90
23259;DHT22;11798;51.528;7.240;2022-11-20T02:54:38;-1.10;99.90
23259;DHT22;11798;51.528;7.240;2022-11-20T02:57:03;-1.10;99.90
23259;DHT22;11798;51.528;7.240;2022-11-20T02:59:29;-1.10;99.90
23259;DHT22;11798;51.528;7.240;2022-11-20T03:01:54;-1.20;99.90
23259;DHT22;11798;51.528;7.240;2022-11-20T03:04:20;-1.20;99.90
23259;DHT22;11798;51.528;7.240;2022-11-20T03:06:45;-1.10;99.90
23259;DHT22;11798;51.528;7.240;2022-11-20T03:09:11;-1.20;99.90
23259;DHT22;11798;51.528;7.240;2022-11-20T03:11:37;-1.20;99.90
23259;DHT22;11798;51.528;7.240;2022-11-20T03:14:04;-1.30;99.90
23259;DHT22;11798;51.528;7.240;2022-11-20T03:16:31;-1.20;99.90
23259;DHT22;11798;51.528;7.240;2022-11-20T03:18:56;-1.20;99.90
23259;DHT22;11798;51.528;7.240;2022-11-20T03:21:22;-1.20;99.90
23259;DHT22;11798;51.528;7.240;2022-11-20T03:23:48;-1.20;99.90
23259;DHT22;11798;51.528;7.240;2022-11-20T03:26:16;-1.20;99.90
23259;DHT22;11798;51.528;7.240;2022-11-20T03:28:47;-1.20;99.90
23259;DHT22;11798;51.528;7.240;2022-11-20T03:31:15;-1.20;99.90
23259;DHT22;11798;51.528;7.240;2022-11-20T03:33:41;-1.20;99.90
23259;DHT22;11798;51.528;7.240;2022-11-20T03:36:15;-1.30;99.90
23259;DHT22;11798;51.528;7.240;2022-11-20T03:38:41;-1.30;99.90
23259;DHT22;11798;51.528;7.240;2022-11-20T03:41:09;-1.30;99.90
23259;DHT22;11798;51.528;7.240;2022-11-20T03:43:36;-1.30;99.90
23259;DHT22;11798;51.528;7.240;2022-11-20T03:46:02;-1.30;99.90
23259;DHT22;11798;51.528;7.240;2022-11-20T03:48:28;-1.20;99.90
23259;DHT22;11798;51.528;7.240;2022-11-20T03:51:28;-1.20;99.90
23259;DHT22;11798;51.528;7.240;2022-11-20T03:53:54;-1.20;99.90
23259;DHT22;11798;51.528;7.240;2022-11-20T03:56:23;-1.20;99.90
23259;DHT22;11798;51.528;7.240;2022-11-20T03:58:48;-1.20;99.90
23259;DHT22;11798;51.528;7.240;2022-11-20T04:01:20;-1.10;99.90
23259;DHT22;11798;51.528;7.240;2022-11-20T04:03:47;-1.20;99.90
23259;DHT22;11798;51.528;7.240;2022-11-20T04:06:21;-1.10;99.90
23259;DHT22;11798;51.528;7.240;2022-11-20T04:08:48;-1.00;99.90
23259;DHT22;11798;51.528;7.240;2022-11-20T04:11:16;-1.20;99.90
23259;DHT22;11798;51.528;7.240;2022-11-20T04:13:45;-1.10;99.90
23259;DHT22;11798;51.528;7.240;2022-11-20T04:16:11;-1.10;99.90
23259;DHT22;11798;51.528;7.240;2022-11-20T04:18:36;-1.00;99.90
23259;DHT22;11798;51.528;7.240;2022-11-20T04:21:03;-1.00;99.90
23259;DHT22;11798;51.528;7.240;2022-11-20T04:23:29;-0.90;99.90
23259;DHT22;11798;51.528;7.240;2022-11-20T04:25:54;-0.90;99.90
23259;DHT22;11798;51.528;7.240;2022-11-20T04:28:20;-0.90;99.90
23259;DHT22;11798;51.528;7.240;2022-11-20T04:30:46;-0.80;99.90
23259;DHT22;11798;51.528;7.240;2022-11-20T04:33:12;-0.70;99.90
23259;DHT22;11798;51.528;7.240;2022-11-20T04:35:38;-0.70;99.90
23259;DHT22;11798;51.528;7.240;2022-11-20T04:38:04;-0.60;99.90
23259;DHT22;11798;51.528;7.240;2022-11-20T04:40:30;-0.60;99.90
23259;DHT22;11798;51.528;7.240;2022-11-20T04:42:56;-0.50;99.90
23259;DHT22;11798;51.528;7.240;2022-11-20T04:45:22;-0.60;99.90
23259;DHT22;11798;51.528;7.240;2022-11-20T04:47:48;-0.50;99.90
23259;DHT22;11798;51.528;7.240;2022-11-20T04:50:14;-0.40;99.90
23259;DHT22;11798;51.528;7.240;2022-11-20T04:52:39;-0.40;99.90
23259;DHT22;11798;51.528;7.240;2022-11-20T04:55:05;-0.40;99.90
23259;DHT22;11798;51.528;7.240;2022-11-20T04:57:31;-0.40;99.90
23259;DHT22;11798;51.528;7.240;2022-11-20T04:59:57;-0.30;99.90
23259;DHT22;11798;51.528;7.240;2022-11-20T05:02:23;-0.30;99.90
23259;DHT22;11798;51.528;7.240;2022-11-20T05:04:48;-0.20;99.90
23259;DHT22;11798;51.528;7.240;2022-11-20T05:07:14;-0.20;99.90
23259;DHT22;11798;51.528;7.240;2022-11-20T05:09:39;-0.40;99.90
23259;DHT22;11798;51.528;7.240;2022-11-20T05:12:07;-0.30;99.90
23259;DHT22;11798;51.528;7.240;2022-11-20T05:14:33;-0.20;99.90
23259;DHT22;11798;51.528;7.240;2022-11-20T05:16:59;-0.20;99.90
23259;DHT22;11798;51.528;7.240;2022-11-20T05:19:24;-0.20;99.90
23259;DHT22;11798;51.528;7.240;2022-11-20T05:21:50;-0.20;99.90
23259;DHT22;11798;51.528;7.240;2022-11-20T05:24:15;-0.10;99.90
23259;DHT22;11798;51.528;7.240;2022-11-20T05:26:41;-0.20;99.90
23259;DHT22;11798;51.528;7.240;2022-11-20T05:29:09;-0.20;99.90
23259;DHT22;11798;51.528;7.240;2022-11-20T05:31:34;-0.10;99.90
23259;DHT22;11798;51.528;7.240;2022-11-20T05:34:01;-0.10;99.90
23259;DHT22;11798;51.528;7.240;2022-11-20T05:36:27;-0.10;99.90
23259;DHT22;11798;51.528;7.240;2022-11-20T05:38:52;0.00;99.90
23259;DHT22;11798;51.528;7.240;2022-11-20T05:41:19;-0.10;99.90
23259;DHT22;11798;51.528;7.240;2022-11-20T05:43:46;-0.20;99.90
23259;DHT22;11798;51.528;7.240;2022-11-20T05:46:14;-0.20;99.90
23259;DHT22;11798;51.528;7.240;2022-11-20T05:48:41;-0.20;99.90
23259;DHT22;11798;51.528;7.240;2022-11-20T05:51:09;-0.20;99.90
23259;DHT22;11798;51.528;7.240;2022-11-20T05:53:35;-0.10;99.90
23259;DHT22;11798;51.528;7.240;2022-11-20T05:56:11;-0.10;99.90
23259;DHT22;11798;51.528;7.240;2022-11-20T05:58:37;-0.10;99.90
23259;DHT22;11798;51.528;7.240;2022-11-20T06:01:11;-0.10;99.90
23259;DHT22;11798;51.528;7.240;2022-11-20T06:03:38;-0.20;99.90
23259;DHT22;11798;51.528;7.240;2022-11-20T06:06:04;-0.20;99.90
23259;DHT22;11798;51.528;7.240;2022-11-20T06:08:31;-0.20;99.90
23259;DHT22;11798;51.528;7.240;2022-11-20T06:10:57;-0.20;99.90
23259;DHT22;11798;51.528;7.240;2022-11-20T06:13:23;-0.20;99.90
23259;DHT22;11798;51.528;7.240;2022-11-20T06:15:50;-0.30;99.90
23259;DHT22;11798;51.528;7.240;2022-11-20T06:18:16;-0.30;99.90
23259;DHT22;11798;51.528;7.240;2022-11-20T06:20:41;-0.20;99.90
23259;DHT22;11798;51.528;7.240;2022-11-20T06:23:07;-0.30;99.90
23259;DHT22;11798;51.528;7.240;2022-11-20T06:25:32;-0.20;99.90
23259;DHT22;11798;51.528;7.240;2022-11-20T06:27:58;-0.20;99.90
23259;DHT22;11798;51.528;7.240;2022-11-20T06:30:24;-0.30;99.90
23259;DHT22;11798;51.528;7.240;2022-11-20T06:32:49;-0.30;99.90
23259;DHT22;11798;51.528;7.240;2022-11-20T06:35:15;-0.30;99.90
23259;DHT22;11798;51.528;7.240;2022-11-20T06:37:40;-0.30;99.90
23259;DHT22;11798;51.528;7.240;2022-11-20T06:40:06;-0.20;99.90
23259;DHT22;11798;51.528;7.240;2022-11-20T06:42:32;-0.30;99.90
23259;DHT22;11798;51.528;7.240;2022-11-20T06:44:58;-0.40;99.90
23259;DHT22;11798;51.528;7.240;2022-11-20T06:47:23;-0.40;99.90
23259;DHT22;11798;51.528;7.240;2022-11-20T06:49:49;-0.40;99.90
23259;DHT22;11798;51.528;7.240;2022-11-20T06:52:14;-0.50;99.90
23259;DHT22;11798;51.528;7.240;2022-11-20T06:54:40;-0.50;99.90
23259;DHT22;11798;51.528;7.240;2022-11-20T06:57:06;-0.50;99.90
23259;DHT22;11798;51.528;7.240;2022-11-20T06:59:31;-0.50;99.90
23259;DHT22;11798;51.528;7.240;2022-11-20T07:01:57;-0.50;99.90
23259;DHT22;11798;51.528;7.240;2022-11-20T07:04:22;-0.50;99.90
23259;DHT22;11798;51.528;7.240;2022-11-20T07:06:48;-0.50;99.90
23259;DHT22;11798;51.528;7.240;2022-11-20T07:09:13;-0.50;99.90
23259;DHT22;11798;51.528;7.240;2022-11-20T07:11:39;-0.50;99.90
23259;DHT22;11798;51.528;7.240;2022-11-20T07:14:05;-0.40;99.90
23259;DHT22;11798;51.528;7.240;2022-11-20T07:16:30;-0.40;99.90
23259;DHT22;11798;51.528;7.240;2022-11-20T07:18:56;-0.40;99.90
23259;DHT22;11798;51.528;7.240;2022-11-20T07:21:22;-0.40;99.90
23259;DHT22;11798;51.528;7.240;2022-11-20T07:23:47;-0.40;99.90
23259;DHT22;11798;51.528;7.240;2022-11-20T07:26:13;-0.40;99.90
23259;DHT22;11798;51.528;7.240;2022-11-20T07:28:38;-0.40;99.90
23259;DHT22;11798;51.528;7.240;2022-11-20T07:31:05;-0.50;99.90
23259;DHT22;11798;51.528;7.240;2022-11-20T07:33:32;-0.40;99.90
23259;DHT22;11798;51.528;7.240;2022-11-20T07:36:01;-0.40;99.90
23259;DHT22;11798;51.528;7.240;2022-11-20T07:38:27;-0.40;99.90
23259;DHT22;11798;51.528;7.240;2022-11-20T07:40:56;-0.40;99.90
23259;DHT22;11798;51.528;7.240;2022-11-20T07:43:23;-0.60;99.90
23259;DHT22;11798;51.528;7.240;2022-11-20T07:45:49;-0.60;99.90
23259;DHT22;11798;51.528;7.240;2022-11-20T07:48:15;-0.60;99.90
23259;DHT22;11798;51.528;7.240;2022-11-20T07:50:41;-0.40;99.90
23259;DHT22;11798;51.528;7.240;2022-11-20T07:53:06;-0.40;99.90
23259;DHT22;11798;51.528;7.240;2022-11-20T07:55:32;-0.30;99.90
23259;DHT22;11798;51.528;7.240;2022-11-20T07:57:58;-0.30;99.90
23259;DHT22;11798;51.528;7.240;2022-11-20T08:00:25;-0.30;99.90
23259;DHT22;11798;51.528;7.240;2022-11-20T08:02:51;-0.20;99.90
23259;DHT22;11798;51.528;7.240;2022-11-20T08:05:17;-0.20;99.90
23259;DHT22;11798;51.528;7.240;2022-11-20T08:07:43;-0.10;99.90
23259;DHT22;11798;51.528;7.240;2022-11-20T08:10:12;-0.10;99.90
23259;DHT22;11798;51.528;7.240;2022-11-20T08:12:49;-0.10;99.90
23259;DHT22;11798;51.528;7.240;2022-11-20T08:15:34;0.00;99.90
23259;DHT22;11798;51.528;7.240;2022-11-20T08:18:01;0.00;99.90
23259;DHT22;11798;51.528;7.240;2022-11-20T08:20:27;0.00;99.90
23259;DHT22;11798;51.528;7.240;2022-11-20T08:22:58;0.10;99.90
23259;DHT22;11798;51.528;7.240;2022-11-20T08:25:24;0.20;99.90
23259;DHT22;11798;51.528;7.240;2022-11-20T08:27:49;0.20;99.90
23259;DHT22;11798;51.528;7.240;2022-11-20T08:30:15;0.20;99.90
23259;DHT22;11798;51.528;7.240;2022-11-20T08:32:40;0.30;99.90
23259;DHT22;11798;51.528;7.240;2022-11-20T08:35:06;0.30;99.90
23259;DHT22;11798;51.528;7.240;2022-11-20T08:37:32;0.40;99.90
23259;DHT22;11798;51.528;7.240;2022-11-20T08:39:57;0.50;99.90
23259;DHT22;11798;51.528;7.240;2022-11-20T08:42:23;0.50;99.90
23259;DHT22;11798;51.528;7.240;2022-11-20T08:44:48;0.60;99.90
23259;DHT22;11798;51.528;7.240;2022-11-20T08:47:14;0.60;99.90
23259;DHT22;11798;51.528;7.240;2022-11-20T08:49:40;0.70;99.90
23259;DHT22;11798;51.528;7.240;2022-11-20T08:52:05;0.70;99.90
23259;DHT22;11798;51.528;7.240;2022-11-20T08:54:31;0.80;99.90
23259;DHT22;11798;51.528;7.240;2022-11-20T08:56:56;0.90;99.90
23259;DHT22;11798;51.528;7.240;2022-11-20T08:59:22;0.80;99.90
23259;DHT22;11798;51.528;7.240;2022-11-20T09:01:48;1.00;99.90
23259;DHT22;11798;51.528;7.240;2022-11-20T09:04:13;1.00;99.90
23259;DHT22;11798;51.528;7.240;2022-11-20T09:06:39;1.10;99.90
23259;DHT22;11798;51.528;7.240;2022-11-20T09:09:05;1.10;99.90
23259;DHT22;11798;51.528;7.240;2022-11-20T09:11:31;1.10;99.90
23259;DHT22;11798;51.528;7.240;2022-11-20T09:13:57;1.10;99.90
23259;DHT22;11798;51.528;7.240;2022-11-20T09:16:22;1.20;99.90
23259;DHT22;11798;51.528;7.240;2022-11-20T09:18:50;1.30;99.90
23259;DHT22;11798;51.528;7.240;2022-11-20T09:21:16;1.40;99.90
23259;DHT22;11798;51.528;7.240;2022-11-20T09:23:42;1.50;99.90
23259;DHT22;11798;51.528;7.240;2022-11-20T09:26:12;1.50;99.90
23259;DHT22;11798;51.528;7.240;2022-11-20T09:28:39;1.60;99.90
23259;DHT22;11798;51.528;7.240;2022-11-20T09:31:08;1.70;99.90
23259;DHT22;11798;51.528;7.240;2022-11-20T09:33:35;1.80;99.90
23259;DHT22;11798;51.528;7.240;2022-11-20T09:36:00;1.90;99.90
23259;DHT22;11798;51.528;7.240;2022-11-20T09:38:26;2.00;99.90
23259;DHT22;11798;51.528;7.240;2022-11-20T09:40:57;2.00;99.90
23259;DHT22;11798;51.528;7.240;2022-11-20T09:51:57;2.30;99.90
23259;DHT22;11798;51.528;7.240;2022-11-20T09:54:43;2.30;99.90
23259;DHT22;11798;51.528;7.240;2022-11-20T09:57:19;2.50;99.90
23259;DHT22;11798;51.528;7.240;2022-11-20T09:59:51;2.70;99.90
23259;DHT22;11798;51.528;7.240;2022-11-20T10:07:55;3.10;99.90
23259;DHT22;11798;51.528;7.240;2022-11-20T10:18:54;3.50;99.90
23259;DHT22;11798;51.528;7.240;2022-11-20T10:30:13;3.80;99.90
23259;DHT22;11798;51.528;7.240;2022-11-20T10:32:46;3.80;99.90
23259;DHT22;11798;51.528;7.240;2022-11-20T10:35:26;3.90;99.90
23259;DHT22;11798;51.528;7.240;2022-11-20T10:38:08;4.10;99.90
23259;DHT22;11798;51.528;7.240;2022-11-20T10:40:47;4.20;99.90
23259;DHT22;11798;51.528;7.240;2022-11-20T10:43:32;4.40;99.90
23259;DHT22;11798;51.528;7.240;2022-11-20T10:46:10;4.40;99.90
23259;DHT22;11798;51.528;7.240;2022-11-20T10:48:43;4.50;99.90
23259;DHT22;11798;51.528;7.240;2022-11-20T10:51:44;4.60;99.90
23259;DHT22;11798;51.528;7.240;2022-11-20T10:57:05;4.60;99.90
23259;DHT22;11798;51.528;7.240;2022-11-20T10:59:46;4.70;99.90
23259;DHT22;11798;51.528;7.240;2022-11-20T11:02:29;4.80;99.90
23259;DHT22;11798;51.528;7.240;2022-11-20T11:04:57;4.90;99.90
23259;DHT22;11798;51.528;7.240;2022-11-20T11:07:31;4.90;99.90
23259;DHT22;11798;51.528;7.240;2022-11-20T11:09:59;4.90;99.90
23259;DHT22;11798;51.528;7.240;2022-11-20T11:12:27;5.00;99.90
23259;DHT22;11798;51.528;7.240;2022-11-20T11:14:55;5.10;99.90
23259;DHT22;11798;51.528;7.240;2022-11-20T11:17:32;5.10;99.90
23259;DHT22;11798;51.528;7.240;2022-11-20T11:22:31;5.30;99.90
23259;DHT22;11798;51.528;7.240;2022-11-20T11:24:58;5.30;99.90
23259;DHT22;11798;51.528;7.240;2022-11-20T11:27:24;5.40;99.90
23259;DHT22;11798;51.528;7.240;2022-11-20T11:29:49;5.20;99.90
23259;DHT22;11798;51.528;7.240;2022-11-20T11:32:19;5.10;99.90
23259;DHT22;11798;51.528;7.240;2022-11-20T11:35:06;5.30;99.90
23259;DHT22;11798;51.528;7.240;2022-11-20T11:37:36;5.20;99.90
23259;DHT22;11798;51.528;7.240;2022-11-20T11:40:05;5.20;99.90
23259;DHT22;11798;51.528;7.240;2022-11-20T11:42:32;5.30;99.90
23259;DHT22;11798;51.528;7.240;2022-11-20T11:44:59;5.50;99.90
23259;DHT22;11798;51.528;7.240;2022-11-20T11:52:51;5.50;99.90
23259;DHT22;11798;51.528;7.240;2022-11-20T11:58:20;5.50;99.90
23259;DHT22;11798;51.528;7.240;2022-11-20T12:03:59;5.50;99.90
23259;DHT22;11798;51.528;7.240;2022-11-20T12:06:27;5.70;99.90
23259;DHT22;11798;51.528;7.240;2022-11-20T12:09:07;5.90;99.90
23259;DHT22;11798;51.528;7.240;2022-11-20T12:11:51;5.80;99.90
23259;DHT22;11798;51.528;7.240;2022-11-20T12:14:34;5.70;99.90
23259;DHT22;11798;51.528;7.240;2022-11-20T12:17:01;5.70;99.90
23259;DHT22;11798;51.528;7.240;2022-11-20T12:19:29;5.70;99.90
23259;DHT22;11798;51.528;7.240;2022-11-20T12:38:20;5.70;99.90
23259;DHT22;11798;51.528;7.240;2022-11-20T12:43:30;5.50;99.90
23259;DHT22;11798;51.528;7.240;2022-11-20T12:49:34;5.50;99.90
23259;DHT22;11798;51.528;7.240;2022-11-20T13:08:39;5.40;99.90
23259;DHT22;11798;51.528;7.240;2022-11-20T13:16:16;5.30;99.90
23259;DHT22;11798;51.528;7.240;2022-11-20T13:18:43;5.40;99.90
23259;DHT22;11798;51.528;7.240;2022-11-20T13:21:40;5.40;99.90
23259;DHT22;11798;51.528;7.240;2022-11-20T13:24:06;5.30;99.90
23259;DHT22;11798;51.528;7.240;2022-11-20T13:26:33;5.30;99.90
23259;DHT22;11798;51.528;7.240;2022-11-20T13:29:08;5.30;99.90
23259;DHT22;11798;51.528;7.240;2022-11-20T13:31:35;5.20;99.90
23259;DHT22;11798;51.528;7.240;2022-11-20T13:34:04;5.20;99.90
23259;DHT22;11798;51.528;7.240;2022-11-20T13:36:31;5.20;99.90
23259;DHT22;11798;51.528;7.240;2022-11-20T13:38:58;5.30;99.90
23259;DHT22;11798;51.528;7.240;2022-11-20T13:41:31;5.30;99.90
23259;DHT22;11798;51.528;7.240;2022-11-20T13:44:23;5.40;99.90
23259;DHT22;11798;51.528;7.240;2022-11-20T13:46:49;5.50;99.90
23259;DHT22;11798;51.528;7.240;2022-11-20T13:49:37;5.50;99.90
23259;DHT22;11798;51.528;7.240;2022-11-20T13:55:34;5.40;99.90
23259;DHT22;11798;51.528;7.240;2022-11-20T14:03:35;5.50;99.90
23259;DHT22;11798;51.528;7.240;2022-11-20T14:06:04;5.50;99.90
23259;DHT22;11798;51.528;7.240;2022-11-20T14:08:44;5.50;99.90
23259;DHT22;11798;51.528;7.240;2022-11-20T14:11:17;5.20;99.90
23259;DHT22;11798;51.528;7.240;2022-11-20T14:14:04;5.20;99.90
23259;DHT22;11798;51.528;7.240;2022-11-20T14:16:32;5.00;99.90
23259;DHT22;11798;51.528;7.240;2022-11-20T14:19:21;5.00;99.90
23259;DHT22;11798;51.528;7.240;2022-11-20T14:21:50;5.00;99.90
23259;DHT22;11798;51.528;7.240;2022-11-20T14:24:21;5.10;99.90
23259;DHT22;11798;51.528;7.240;2022-11-20T14:26:48;5.10;99.90
23259;DHT22;11798;51.528;7.240;2022-11-20T14:29:14;5.10;99.90
23259;DHT22;11798;51.528;7.240;2022-11-20T14:31:42;5.20;99.90
23259;DHT22;11798;51.528;7.240;2022-11-20T14:34:26;5.10;99.90
23259;DHT22;11798;51.528;7.240;2022-11-20T14:36:57;4.90;99.90
23259;DHT22;11798;51.528;7.240;2022-11-20T14:39:37;4.90;99.90
23259;DHT22;11798;51.528;7.240;2022-11-20T14:42:18;4.90;99.90
23259;DHT22;11798;51.528;7.240;2022-11-20T14:44:44;4.80;99.90
23259;DHT22;11798;51.528;7.240;2022-11-20T14:47:12;4.80;99.90
23259;DHT22;11798;51.528;7.240;2022-11-20T14:49:38;4.70;99.90
23259;DHT22;11798;51.528;7.240;2022-11-20T14:52:17;4.70;99.90
23259;DHT22;11798;51.528;7.240;2022-11-20T14:54:45;4.70;99.90
23259;DHT22;11798;51.528;7.240;2022-11-20T14:57:22;4.70;99.90
23259;DHT22;11798;51.528;7.240;2022-11-20T14:59:47;4.70;99.90
23259;DHT22;11798;51.528;7.240;2022-11-20T15:02:13;4.60;99.90
23259;DHT22;11798;51.528;7.240;2022-11-20T15:07:11;4.50;99.90
23259;DHT22;11798;51.528;7.240;2022-11-20T15:09:55;4.50;99.90
23259;DHT22;11798;51.528;7.240;2022-11-20T15:12:23;4.60;99.90
23259;DHT22;11798;51.528;7.240;2022-11-20T15:14:49;4.60;99.90
23259;DHT22;11798;51.528;7.240;2022-11-20T15:17:15;4.60;99.90
23259;DHT22;11798;51.528;7.240;2022-11-20T15:19:41;4.60;99.90
23259;DHT22;11798;51.528;7.240;2022-11-20T15:22:11;4.50;99.90
23259;DHT22;11798;51.528;7.240;2022-11-20T15:24:38;4.50;99.90
23259;DHT22;11798;51.528;7.240;2022-11-20T15:27:04;4.50;99.90
23259;DHT22;11798;51.528;7.240;2022-11-20T15:29:30;4.50;99.90
23259;DHT22;11798;51.528;7.240;2022-11-20T15:31:55;4.40;99.90
23259;DHT22;11798;51.528;7.240;2022-11-20T15:34:21;4.40;99.90
23259;DHT22;11798;51.528;7.240;2022-11-20T15:36:47;4.50;99.90
23259;DHT22;11798;51.528;7.240;2022-11-20T15:39:12;4.40;99.90
23259;DHT22;11798;51.528;7.240;2022-11-20T15:41:38;4.30;99.90
23259;DHT22;11798;51.528;7.240;2022-11-20T15:44:04;4.30;99.90
23259;DHT22;11798;51.528;7.240;2022-11-20T15:46:32;4.20;99.90
23259;DHT22;11798;51.528;7.240;2022-11-20T15:49:02;4.30;99.90
23259;DHT22;11798;51.528;7.240;2022-11-20T15:51:36;4.40;99.90
23259;DHT22;11798;51.528;7.240;2022-11-20T15:54:14;4.40;99.90
23259;DHT22;11798;51.528;7.240;2022-11-20T15:56:41;4.50;99.90
23259;DHT22;11798;51.528;7.240;2022-11-20T15:59:07;4.40;99.90
23259;DHT22;11798;51.528;7.240;2022-11-20T16:01:32;4.40;99.90
23259;DHT22;11798;51.528;7.240;2022-11-20T16:03:59;4.40;99.90
23259;DHT22;11798;51.528;7.240;2022-11-20T16:06:25;4.30;99.90
23259;DHT22;11798;51.528;7.240;2022-11-20T16:08:50;4.20;99.90
23259;DHT22;11798;51.528;7.240;2022-11-20T16:11:17;4.30;99.90
23259;DHT22;11798;51.528;7.240;2022-11-20T16:13:44;4.30;99.90
23259;DHT22;11798;51.528;7.240;2022-11-20T16:16:33;4.40;99.90
23259;DHT22;11798;51.528;7.240;2022-11-20T16:18:59;4.30;99.90
23259;DHT22;11798;51.528;7.240;2022-11-20T16:21:26;4.30;99.90
23259;DHT22;11798;51.528;7.240;2022-11-20T16:23:58;4.30;99.90
23259;DHT22;11798;51.528;7.240;2022-11-20T16:26:24;4.30;99.90
23259;DHT22;11798;51.528;7.240;2022-11-20T16:28:50;4.30;99.90
23259;DHT22;11798;51.528;7.240;2022-11-20T16:31:17;4.20;99.90
23259;DHT22;11798;51.528;7.240;2022-11-20T16:33:43;4.30;99.90
23259;DHT22;11798;51.528;7.240;2022-11-20T16:36:14;4.40;99.90
23259;DHT22;11798;51.528;7.240;2022-11-20T16:38:40;4.40;99.90
23259;DHT22;11798;51.528;7.240;2022-11-20T16:41:07;4.40;99.90
23259;DHT22;11798;51.528;7.240;2022-11-20T16:43:47;4.50;99.90
23259;DHT22;11798;51.528;7.240;2022-11-20T16:46:18;4.40;99.90
23259;DHT22;11798;51.528;7.240;2022-11-20T16:48:44;4.30;99.90
23259;DHT22;11798;51.528;7.240;2022-11-20T16:51:11;4.40;99.90
23259;DHT22;11798;51.528;7.240;2022-11-20T16:53:38;4.50;99.90
23259;DHT22;11798;51.528;7.240;2022-11-20T16:56:11;4.50;99.90
23259;DHT22;11798;51.528;7.240;2022-11-20T16:58:38;4.50;99.90
23259;DHT22;11798;51.528;7.240;2022-11-20T17:01:07;4.60;99.90
23259;DHT22;11798;51.528;7.240;2022-11-20T17:03:38;4.70;99.90
23259;DHT22;11798;51.528;7.240;2022-11-20T17:06:16;4.70;99.90
23259;DHT22;11798;51.528;7.240;2022-11-20T17:08:42;4.70;99.90
23259;DHT22;11798;51.528;7.240;2022-11-20T17:11:10;4.70;99.90
23259;DHT22;11798;51.528;7.240;2022-11-20T17:13:36;4.80;99.90
23259;DHT22;11798;51.528;7.240;2022-11-20T17:16:10;4.80;99.90
23259;DHT22;11798;51.528;7.240;2022-11-20T17:18:36;4.80;99.90
23259;DHT22;11798;51.528;7.240;2022-11-20T17:21:02;4.80;99.90
23259;DHT22;11798;51.528;7.240;2022-11-20T17:23:32;4.60;99.90
23259;DHT22;11798;51.528;7.240;2022-11-20T17:26:03;4.60;99.90
23259;DHT22;11798;51.528;7.240;2022-11-20T17:28:29;4.60;99.90
23259;DHT22;11798;51.528;7.240;2022-11-20T17:31:08;4.60;99.90
23259;DHT22;11798;51.528;7.240;2022-11-20T17:33:35;4.50;99.90
23259;DHT22;11798;51.528;7.240;2022-11-20T17:36:02;4.50;99.90
23259;DHT22;11798;51.528;7.240;2022-11-20T17:38:28;4.60;99.90
23259;DHT22;11798;51.528;7.240;2022-11-20T17:41:04;4.60;99.90
23259;DHT22;11798;51.528;7.240;2022-11-20T17:43:31;4.60;99.90